Terminal Aerodrome Forecast
Issued by NWS

Home | Current Version | Previous Version | Text Only | Print | Product List | Glossary Off
Versions: 1 2 3 4 5 6 7 8 9 10 11 12 13 14 15 16 17 18 19 20 21 22 23

000
FTUS43 KBIS 151720
TAFMOT
TAF
KMOT 151720Z 1518/1618 32014KT P6SM BKN025
     FM152300 05008KT P6SM BKN020
     FM160500 11007KT P6SM BKN020
     FM161200 12011KT P6SM BKN020
     FM161600 13015G23KT P6SM BKN035=

USA.gov is the U.S. government's official web portal to all federal, state and local government web resources and services.